sensor_id;sensor_type;location;lat;lon;timestamp;temperature;humidity
32660;DHT22;19064;47.912;12.308;2024-03-23T00:52:49;8.90;99.90
32660;DHT22;19064;47.912;12.308;2024-03-23T00:55:15;8.90;99.90
32660;DHT22;19064;47.912;12.308;2024-03-23T00:57:41;8.90;99.90
32660;DHT22;19064;47.912;12.308;2024-03-23T01:00:08;8.90;99.90
32660;DHT22;19064;47.912;12.308;2024-03-23T01:02:36;9.00;99.90
32660;DHT22;19064;47.912;12.308;2024-03-23T01:05:02;8.90;99.90
32660;DHT22;19064;47.912;12.308;2024-03-23T01:07:29;8.90;99.90
32660;DHT22;19064;47.912;12.308;2024-03-23T01:09:56;8.90;99.90
32660;DHT22;19064;47.912;12.308;2024-03-23T01:12:22;9.00;99.90
32660;DHT22;19064;47.912;12.308;2024-03-23T01:14:48;9.00;99.90
32660;DHT22;19064;47.912;12.308;2024-03-23T01:17:15;9.10;99.90
32660;DHT22;19064;47.912;12.308;2024-03-23T01:19:41;9.10;99.90
32660;DHT22;19064;47.912;12.308;2024-03-23T01:22:08;9.10;99.90
32660;DHT22;19064;47.912;12.308;2024-03-23T01:24:35;9.10;99.90
32660;DHT22;19064;47.912;12.308;2024-03-23T01:27:04;9.10;99.90
32660;DHT22;19064;47.912;12.308;2024-03-23T01:29:29;9.10;99.90
32660;DHT22;19064;47.912;12.308;2024-03-23T01:31:56;9.20;99.90
32660;DHT22;19064;47.912;12.308;2024-03-23T01:34:22;9.20;99.90
32660;DHT22;19064;47.912;12.308;2024-03-23T01:36:50;9.20;99.90
32660;DHT22;19064;47.912;12.308;2024-03-23T01:39:16;9.20;99.90
32660;DHT22;19064;47.912;12.308;2024-03-23T01:41:43;9.20;99.90
32660;DHT22;19064;47.912;12.308;2024-03-23T01:44:10;9.20;99.90
32660;DHT22;19064;47.912;12.308;2024-03-23T01:46:37;9.20;99.90
32660;DHT22;19064;47.912;12.308;2024-03-23T01:49:03;9.30;99.90
32660;DHT22;19064;47.912;12.308;2024-03-23T01:51:30;9.30;99.90
32660;DHT22;19064;47.912;12.308;2024-03-23T01:53:56;9.40;99.90
32660;DHT22;19064;47.912;12.308;2024-03-23T01:56:23;9.40;99.90
32660;DHT22;19064;47.912;12.308;2024-03-23T01:58:49;9.40;99.90
32660;DHT22;19064;47.912;12.308;2024-03-23T02:01:17;9.40;99.90
32660;DHT22;19064;47.912;12.308;2024-03-23T02:03:42;9.40;99.90
32660;DHT22;19064;47.912;12.308;2024-03-23T02:06:09;9.50;99.90
32660;DHT22;19064;47.912;12.308;2024-03-23T02:08:35;9.60;99.90
32660;DHT22;19064;47.912;12.308;2024-03-23T02:11:02;9.60;99.90
32660;DHT22;19064;47.912;12.308;2024-03-23T02:13:28;9.60;99.90
32660;DHT22;19064;47.912;12.308;2024-03-23T02:15:54;9.50;99.90
32660;DHT22;19064;47.912;12.308;2024-03-23T02:18:22;9.50;99.90
32660;DHT22;19064;47.912;12.308;2024-03-23T02:20:48;9.40;99.90
32660;DHT22;19064;47.912;12.308;2024-03-23T02:23:16;9.30;99.90
32660;DHT22;19064;47.912;12.308;2024-03-23T02:25:43;9.30;99.90
32660;DHT22;19064;47.912;12.308;2024-03-23T02:28:09;9.30;99.90
32660;DHT22;19064;47.912;12.308;2024-03-23T02:30:36;9.20;99.90
32660;DHT22;19064;47.912;12.308;2024-03-23T02:33:02;9.10;99.90
32660;DHT22;19064;47.912;12.308;2024-03-23T02:35:30;9.00;99.90
32660;DHT22;19064;47.912;12.308;2024-03-23T02:37:56;8.90;99.90
32660;DHT22;19064;47.912;12.308;2024-03-23T02:40:24;8.80;99.90
32660;DHT22;19064;47.912;12.308;2024-03-23T02:42:50;8.60;99.90
32660;DHT22;19064;47.912;12.308;2024-03-23T02:45:17;8.50;99.90
32660;DHT22;19064;47.912;12.308;2024-03-23T02:47:43;8.30;99.90
32660;DHT22;19064;47.912;12.308;2024-03-23T02:50:09;8.20;99.90
32660;DHT22;19064;47.912;12.308;2024-03-23T02:52:35;8.10;99.90
32660;DHT22;19064;47.912;12.308;2024-03-23T02:55:02;8.00;99.90
32660;DHT22;19064;47.912;12.308;2024-03-23T02:57:30;8.00;99.90
32660;DHT22;19064;47.912;12.308;2024-03-23T02:59:56;7.90;99.90
32660;DHT22;19064;47.912;12.308;2024-03-23T03:02:22;8.00;99.90
32660;DHT22;19064;47.912;12.308;2024-03-23T03:04:49;8.10;99.90
32660;DHT22;19064;47.912;12.308;2024-03-23T03:07:15;8.10;99.90
32660;DHT22;19064;47.912;12.308;2024-03-23T03:09:41;8.10;99.90
32660;DHT22;19064;47.912;12.308;2024-03-23T03:12:07;8.10;99.90
32660;DHT22;19064;47.912;12.308;2024-03-23T03:14:36;8.10;99.90
32660;DHT22;19064;47.912;12.308;2024-03-23T03:17:01;8.10;99.90
32660;DHT22;19064;47.912;12.308;2024-03-23T03:19:28;8.10;99.90
32660;DHT22;19064;47.912;12.308;2024-03-23T03:21:54;8.20;99.90
32660;DHT22;19064;47.912;12.308;2024-03-23T03:24:21;8.20;99.90
32660;DHT22;19064;47.912;12.308;2024-03-23T03:26:47;8.20;99.90
32660;DHT22;19064;47.912;12.308;2024-03-23T03:29:15;8.20;99.90
32660;DHT22;19064;47.912;12.308;2024-03-23T03:31:42;8.30;99.90
32660;DHT22;19064;47.912;12.308;2024-03-23T03:34:09;8.30;99.90
32660;DHT22;19064;47.912;12.308;2024-03-23T03:36:35;8.30;99.90
32660;DHT22;19064;47.912;12.308;2024-03-23T03:39:02;8.30;99.90
32660;DHT22;19064;47.912;12.308;2024-03-23T03:41:28;8.30;99.90
32660;DHT22;19064;47.912;12.308;2024-03-23T03:43:55;8.20;99.90
32660;DHT22;19064;47.912;12.308;2024-03-23T03:46:21;8.10;99.90
32660;DHT22;19064;47.912;12.308;2024-03-23T03:48:49;8.20;99.90
32660;DHT22;19064;47.912;12.308;2024-03-23T03:51:15;9.10;99.90
32660;DHT22;19064;47.912;12.308;2024-03-23T03:53:42;9.10;99.90
32660;DHT22;19064;47.912;12.308;2024-03-23T03:56:08;9.00;99.90
32660;DHT22;19064;47.912;12.308;2024-03-23T03:58:34;9.00;99.90
32660;DHT22;19064;47.912;12.308;2024-03-23T04:01:00;8.90;99.90
32660;DHT22;19064;47.912;12.308;2024-03-23T04:03:27;8.90;99.90
32660;DHT22;19064;47.912;12.308;2024-03-23T04:05:54;8.80;99.90
32660;DHT22;19064;47.912;12.308;2024-03-23T04:08:21;8.10;99.90
32660;DHT22;19064;47.912;12.308;2024-03-23T04:10:47;7.80;99.90
32660;DHT22;19064;47.912;12.308;2024-03-23T04:13:14;7.90;99.90
32660;DHT22;19064;47.912;12.308;2024-03-23T04:15:40;7.80;99.90
32660;DHT22;19064;47.912;12.308;2024-03-23T04:18:06;7.70;99.90
32660;DHT22;19064;47.912;12.308;2024-03-23T04:20:32;7.70;99.90
32660;DHT22;19064;47.912;12.308;2024-03-23T04:23:00;7.70;99.90
32660;DHT22;19064;47.912;12.308;2024-03-23T04:25:26;7.70;99.90
32660;DHT22;19064;47.912;12.308;2024-03-23T04:27:53;7.80;99.90
32660;DHT22;19064;47.912;12.308;2024-03-23T04:30:18;7.80;99.90
32660;DHT22;19064;47.912;12.308;2024-03-23T04:32:46;7.70;99.90
32660;DHT22;19064;47.912;12.308;2024-03-23T04:35:13;7.80;99.90
32660;DHT22;19064;47.912;12.308;2024-03-23T04:37:39;7.70;99.90
32660;DHT22;19064;47.912;12.308;2024-03-23T04:40:09;7.70;99.90
32660;DHT22;19064;47.912;12.308;2024-03-23T04:42:36;7.70;99.90
32660;DHT22;19064;47.912;12.308;2024-03-23T04:45:04;7.70;99.90
32660;DHT22;19064;47.912;12.308;2024-03-23T04:47:32;7.70;99.90
32660;DHT22;19064;47.912;12.308;2024-03-23T04:49:58;7.90;99.90
32660;DHT22;19064;47.912;12.308;2024-03-23T04:52:26;8.00;99.90
32660;DHT22;19064;47.912;12.308;2024-03-23T04:54:53;8.10;99.90
32660;DHT22;19064;47.912;12.308;2024-03-23T04:57:20;8.20;99.90
32660;DHT22;19064;47.912;12.308;2024-03-23T04:59:47;8.30;99.90
32660;DHT22;19064;47.912;12.308;2024-03-23T05:02:13;8.30;99.90
32660;DHT22;19064;47.912;12.308;2024-03-23T05:04:40;8.30;99.90
32660;DHT22;19064;47.912;12.308;2024-03-23T05:07:06;8.30;99.90
32660;DHT22;19064;47.912;12.308;2024-03-23T05:09:33;8.20;99.90
32660;DHT22;19064;47.912;12.308;2024-03-23T05:11:59;8.10;99.90
32660;DHT22;19064;47.912;12.308;2024-03-23T05:14:28;8.00;99.90
32660;DHT22;19064;47.912;12.308;2024-03-23T05:16:54;7.80;99.90
32660;DHT22;19064;47.912;12.308;2024-03-23T05:19:21;7.90;99.90
32660;DHT22;19064;47.912;12.308;2024-03-23T05:21:47;7.90;99.90
32660;DHT22;19064;47.912;12.308;2024-03-23T05:24:14;7.90;99.90
32660;DHT22;19064;47.912;12.308;2024-03-23T05:26:40;7.80;99.90
32660;DHT22;19064;47.912;12.308;2024-03-23T05:29:06;7.70;99.90
32660;DHT22;19064;47.912;12.308;2024-03-23T05:31:37;7.60;99.90
32660;DHT22;19064;47.912;12.308;2024-03-23T05:34:04;7.60;99.90
32660;DHT22;19064;47.912;12.308;2024-03-23T05:36:30;7.60;99.90
32660;DHT22;19064;47.912;12.308;2024-03-23T05:38:58;7.60;99.90
32660;DHT22;19064;47.912;12.308;2024-03-23T05:41:23;7.60;99.90
32660;DHT22;19064;47.912;12.308;2024-03-23T05:43:50;7.60;99.90
32660;DHT22;19064;47.912;12.308;2024-03-23T05:46:16;7.70;99.90
32660;DHT22;19064;47.912;12.308;2024-03-23T05:48:44;7.70;99.90
32660;DHT22;19064;47.912;12.308;2024-03-23T05:51:10;7.80;99.90
32660;DHT22;19064;47.912;12.308;2024-03-23T05:53:38;7.90;99.90
32660;DHT22;19064;47.912;12.308;2024-03-23T05:56:04;7.90;99.90
32660;DHT22;19064;47.912;12.308;2024-03-23T05:58:31;8.00;99.90
32660;DHT22;19064;47.912;12.308;2024-03-23T06:00:58;8.10;99.90
32660;DHT22;19064;47.912;12.308;2024-03-23T06:03:25;8.20;99.90
32660;DHT22;19064;47.912;12.308;2024-03-23T06:05:53;8.30;99.90
32660;DHT22;19064;47.912;12.308;2024-03-23T06:08:19;8.50;99.90
32660;DHT22;19064;47.912;12.308;2024-03-23T06:10:45;8.60;99.90
32660;DHT22;19064;47.912;12.308;2024-03-23T06:13:12;8.80;99.90
32660;DHT22;19064;47.912;12.308;2024-03-23T06:15:38;8.90;99.90
32660;DHT22;19064;47.912;12.308;2024-03-23T06:18:04;9.10;99.90
32660;DHT22;19064;47.912;12.308;2024-03-23T06:20:31;9.20;99.90
32660;DHT22;19064;47.912;12.308;2024-03-23T06:22:59;9.40;99.90
32660;DHT22;19064;47.912;12.308;2024-03-23T06:25:25;9.50;99.90
32660;DHT22;19064;47.912;12.308;2024-03-23T06:27:51;9.70;99.90
32660;DHT22;19064;47.912;12.308;2024-03-23T06:30:17;9.90;99.90
32660;DHT22;19064;47.912;12.308;2024-03-23T06:32:44;10.10;99.90
32660;DHT22;19064;47.912;12.308;2024-03-23T06:35:10;10.10;99.90
32660;DHT22;19064;47.912;12.308;2024-03-23T06:37:37;10.30;99.90
32660;DHT22;19064;47.912;12.308;2024-03-23T06:40:07;10.50;99.90
32660;DHT22;19064;47.912;12.308;2024-03-23T06:42:35;10.60;99.90
32660;DHT22;19064;47.912;12.308;2024-03-23T06:45:01;10.80;99.90
32660;DHT22;19064;47.912;12.308;2024-03-23T06:47:28;11.00;99.90
32660;DHT22;19064;47.912;12.308;2024-03-23T06:49:54;11.20;99.90
32660;DHT22;19064;47.912;12.308;2024-03-23T06:52:20;11.40;99.90
32660;DHT22;19064;47.912;12.308;2024-03-23T06:54:46;11.50;99.90
32660;DHT22;19064;47.912;12.308;2024-03-23T06:57:14;11.70;99.90
32660;DHT22;19064;47.912;12.308;2024-03-23T06:59:40;11.90;99.90
32660;DHT22;19064;47.912;12.308;2024-03-23T07:02:07;12.00;99.90
32660;DHT22;19064;47.912;12.308;2024-03-23T07:04:34;12.10;99.90
32660;DHT22;19064;47.912;12.308;2024-03-23T07:07:00;12.30;99.90
32660;DHT22;19064;47.912;12.308;2024-03-23T07:09:27;12.60;99.90
32660;DHT22;19064;47.912;12.308;2024-03-23T07:11:54;12.70;99.90
32660;DHT22;19064;47.912;12.308;2024-03-23T07:14:22;12.80;99.90
32660;DHT22;19064;47.912;12.308;2024-03-23T07:16:49;12.70;99.90
32660;DHT22;19064;47.912;12.308;2024-03-23T07:19:15;12.70;99.90
32660;DHT22;19064;47.912;12.308;2024-03-23T07:21:42;12.80;99.90
32660;DHT22;19064;47.912;12.308;2024-03-23T07:24:09;12.80;99.90
32660;DHT22;19064;47.912;12.308;2024-03-23T07:26:36;12.90;99.90
32660;DHT22;19064;47.912;12.308;2024-03-23T07:29:03;13.00;99.90
32660;DHT22;19064;47.912;12.308;2024-03-23T07:31:31;13.10;99.90
32660;DHT22;19064;47.912;12.308;2024-03-23T07:33:57;13.20;99.90
32660;DHT22;19064;47.912;12.308;2024-03-23T07:36:23;13.40;99.90
32660;DHT22;19064;47.912;12.308;2024-03-23T07:38:49;13.50;99.90
32660;DHT22;19064;47.912;12.308;2024-03-23T07:41:18;13.80;99.90
32660;DHT22;19064;47.912;12.308;2024-03-23T07:43:44;14.20;99.90
32660;DHT22;19064;47.912;12.308;2024-03-23T07:46:11;14.50;99.90
32660;DHT22;19064;47.912;12.308;2024-03-23T07:48:39;14.80;99.90
32660;DHT22;19064;47.912;12.308;2024-03-23T07:51:09;14.90;99.90
32660;DHT22;19064;47.912;12.308;2024-03-23T07:53:36;15.00;99.90
32660;DHT22;19064;47.912;12.308;2024-03-23T07:56:06;15.20;99.90
32660;DHT22;19064;47.912;12.308;2024-03-23T07:58:33;15.50;99.90
32660;DHT22;19064;47.912;12.308;2024-03-23T08:01:04;15.70;99.90
32660;DHT22;19064;47.912;12.308;2024-03-23T08:03:30;15.90;99.90
32660;DHT22;19064;47.912;12.308;2024-03-23T08:06:06;16.20;99.90
32660;DHT22;19064;47.912;12.308;2024-03-23T08:08:32;16.50;99.90
32660;DHT22;19064;47.912;12.308;2024-03-23T08:10:59;16.60;99.90
32660;DHT22;19064;47.912;12.308;2024-03-23T08:13:24;16.80;99.90
32660;DHT22;19064;47.912;12.308;2024-03-23T08:15:51;17.00;99.90
32660;DHT22;19064;47.912;12.308;2024-03-23T08:18:17;17.10;99.90
32660;DHT22;19064;47.912;12.308;2024-03-23T08:20:44;17.10;99.90
32660;DHT22;19064;47.912;12.308;2024-03-23T08:23:11;16.70;99.90
32660;DHT22;19064;47.912;12.308;2024-03-23T08:25:38;16.10;99.90
32660;DHT22;19064;47.912;12.308;2024-03-23T08:28:04;15.50;99.90
32660;DHT22;19064;47.912;12.308;2024-03-23T08:30:35;15.20;99.90
32660;DHT22;19064;47.912;12.308;2024-03-23T08:33:00;14.90;99.90
32660;DHT22;19064;47.912;12.308;2024-03-23T08:35:27;14.60;99.90
32660;DHT22;19064;47.912;12.308;2024-03-23T08:37:53;14.30;99.90
32660;DHT22;19064;47.912;12.308;2024-03-23T08:40:21;14.10;99.90
32660;DHT22;19064;47.912;12.308;2024-03-23T08:42:47;14.10;99.90
32660;DHT22;19064;47.912;12.308;2024-03-23T08:45:14;14.40;99.90
32660;DHT22;19064;47.912;12.308;2024-03-23T08:47:40;14.90;99.90
32660;DHT22;19064;47.912;12.308;2024-03-23T08:50:07;15.20;99.90
32660;DHT22;19064;47.912;12.308;2024-03-23T08:52:33;15.40;99.90
32660;DHT22;19064;47.912;12.308;2024-03-23T08:55:00;15.40;99.90
32660;DHT22;19064;47.912;12.308;2024-03-23T08:57:27;15.20;99.90
32660;DHT22;19064;47.912;12.308;2024-03-23T08:59:53;14.70;99.90
32660;DHT22;19064;47.912;12.308;2024-03-23T09:02:19;14.40;99.90
32660;DHT22;19064;47.912;12.308;2024-03-23T09:04:46;13.80;99.90
32660;DHT22;19064;47.912;12.308;2024-03-23T09:07:12;13.50;99.90
32660;DHT22;19064;47.912;12.308;2024-03-23T09:09:38;13.30;99.90
32660;DHT22;19064;47.912;12.308;2024-03-23T09:12:05;13.10;99.90
32660;DHT22;19064;47.912;12.308;2024-03-23T09:14:33;13.00;99.90
32660;DHT22;19064;47.912;12.308;2024-03-23T09:16:59;12.90;99.90
32660;DHT22;19064;47.912;12.308;2024-03-23T09:19:28;12.80;99.90
32660;DHT22;19064;47.912;12.308;2024-03-23T09:21:53;12.70;99.90
32660;DHT22;19064;47.912;12.308;2024-03-23T09:24:20;12.60;99.90
32660;DHT22;19064;47.912;12.308;2024-03-23T09:26:46;12.50;99.90
32660;DHT22;19064;47.912;12.308;2024-03-23T09:29:13;12.40;99.90
32660;DHT22;19064;47.912;12.308;2024-03-23T09:31:40;12.20;99.90
32660;DHT22;19064;47.912;12.308;2024-03-23T09:34:07;12.10;99.90
32660;DHT22;19064;47.912;12.308;2024-03-23T09:36:33;12.00;99.90
32660;DHT22;19064;47.912;12.308;2024-03-23T09:38:59;11.90;99.90
32660;DHT22;19064;47.912;12.308;2024-03-23T09:41:25;11.90;99.90
32660;DHT22;19064;47.912;12.308;2024-03-23T09:43:52;11.80;99.90
32660;DHT22;19064;47.912;12.308;2024-03-23T09:46:18;11.30;99.90
32660;DHT22;19064;47.912;12.308;2024-03-23T09:48:47;10.70;99.90
32660;DHT22;19064;47.912;12.308;2024-03-23T09:51:13;10.40;99.90
32660;DHT22;19064;47.912;12.308;2024-03-23T09:53:40;10.10;99.90
32660;DHT22;19064;47.912;12.308;2024-03-23T09:56:07;9.90;99.90
32660;DHT22;19064;47.912;12.308;2024-03-23T09:58:34;9.70;99.90
32660;DHT22;19064;47.912;12.308;2024-03-23T10:01:01;9.50;99.90
32660;DHT22;19064;47.912;12.308;2024-03-23T10:03:28;9.50;99.90
32660;DHT22;19064;47.912;12.308;2024-03-23T10:06:02;9.50;99.90
32660;DHT22;19064;47.912;12.308;2024-03-23T10:08:29;9.40;99.90
32660;DHT22;19064;47.912;12.308;2024-03-23T10:10:56;9.30;99.90
32660;DHT22;19064;47.912;12.308;2024-03-23T10:13:27;9.20;99.90
32660;DHT22;19064;47.912;12.308;2024-03-23T10:15:55;9.20;99.90
32660;DHT22;19064;47.912;12.308;2024-03-23T10:18:24;9.20;99.90
32660;DHT22;19064;47.912;12.308;2024-03-23T10:20:52;9.10;99.90
32660;DHT22;19064;47.912;12.308;2024-03-23T10:23:20;9.10;99.90
32660;DHT22;19064;47.912;12.308;2024-03-23T10:25:48;9.10;99.90
32660;DHT22;19064;47.912;12.308;2024-03-23T10:28:14;9.00;99.90
32660;DHT22;19064;47.912;12.308;2024-03-23T10:30:40;9.00;99.90
32660;DHT22;19064;47.912;12.308;2024-03-23T10:33:08;9.00;99.90
32660;DHT22;19064;47.912;12.308;2024-03-23T10:35:33;9.00;99.90
32660;DHT22;19064;47.912;12.308;2024-03-23T10:38:01;8.90;99.90
32660;DHT22;19064;47.912;12.308;2024-03-23T10:40:29;8.90;99.90
32660;DHT22;19064;47.912;12.308;2024-03-23T10:42:57;8.90;99.90
32660;DHT22;19064;47.912;12.308;2024-03-23T10:45:23;8.80;99.90
32660;DHT22;19064;47.912;12.308;2024-03-23T10:47:51;8.70;99.90
32660;DHT22;19064;47.912;12.308;2024-03-23T10:50:17;8.40;99.90
32660;DHT22;19064;47.912;12.308;2024-03-23T10:52:46;8.30;99.90
32660;DHT22;19064;47.912;12.308;2024-03-23T10:55:14;8.30;99.90
32660;DHT22;19064;47.912;12.308;2024-03-23T10:57:50;8.20;99.90
32660;DHT22;19064;47.912;12.308;2024-03-23T11:00:17;8.20;99.90
32660;DHT22;19064;47.912;12.308;2024-03-23T11:02:44;8.20;99.90
32660;DHT22;19064;47.912;12.308;2024-03-23T11:05:31;8.10;99.90
32660;DHT22;19064;47.912;12.308;2024-03-23T11:07:58;8.00;99.90
32660;DHT22;19064;47.912;12.308;2024-03-23T11:10:28;8.00;99.90
32660;DHT22;19064;47.912;12.308;2024-03-23T11:12:57;7.90;99.90
32660;DHT22;19064;47.912;12.308;2024-03-23T11:15:23;7.90;99.90
32660;DHT22;19064;47.912;12.308;2024-03-23T11:18:03;7.80;99.90
32660;DHT22;19064;47.912;12.308;2024-03-23T11:20:32;7.80;99.90
32660;DHT22;19064;47.912;12.308;2024-03-23T11:22:59;7.60;99.90
32660;DHT22;19064;47.912;12.308;2024-03-23T11:25:26;7.70;99.90
32660;DHT22;19064;47.912;12.308;2024-03-23T11:27:54;7.70;99.90
32660;DHT22;19064;47.912;12.308;2024-03-23T11:30:23;7.70;99.90
32660;DHT22;19064;47.912;12.308;2024-03-23T11:32:51;7.60;99.90
32660;DHT22;19064;47.912;12.308;2024-03-23T11:35:27;7.60;99.90
32660;DHT22;19064;47.912;12.308;2024-03-23T11:38:04;7.60;99.90
32660;DHT22;19064;47.912;12.308;2024-03-23T11:40:30;7.50;99.90
32660;DHT22;19064;47.912;12.308;2024-03-23T11:42:58;7.40;99.90
32660;DHT22;19064;47.912;12.308;2024-03-23T11:45:25;7.30;99.90
32660;DHT22;19064;47.912;12.308;2024-03-23T11:48:05;7.30;99.90
32660;DHT22;19064;47.912;12.308;2024-03-23T11:50:31;7.40;99.90
32660;DHT22;19064;47.912;12.308;2024-03-23T11:53:13;7.40;99.90
32660;DHT22;19064;47.912;12.308;2024-03-23T11:55:41;7.30;99.90
32660;DHT22;19064;47.912;12.308;2024-03-23T11:58:08;7.40;99.90
32660;DHT22;19064;47.912;12.308;2024-03-23T12:00:36;7.30;99.90
32660;DHT22;19064;47.912;12.308;2024-03-23T12:03:06;7.40;99.90
32660;DHT22;19064;47.912;12.308;2024-03-23T12:05:33;7.30;99.90
32660;DHT22;19064;47.912;12.308;2024-03-23T12:08:17;7.30;99.90
32660;DHT22;19064;47.912;12.308;2024-03-23T12:10:46;7.30;99.90
32660;DHT22;19064;47.912;12.308;2024-03-23T12:13:18;7.30;99.90
32660;DHT22;19064;47.912;12.308;2024-03-23T12:15:46;7.20;99.90
32660;DHT22;19064;47.912;12.308;2024-03-23T12:18:13;7.20;99.90
32660;DHT22;19064;47.912;12.308;2024-03-23T12:20:40;7.20;99.90
32660;DHT22;19064;47.912;12.308;2024-03-23T12:23:08;7.30;99.90
32660;DHT22;19064;47.912;12.308;2024-03-23T12:25:35;7.30;99.90
32660;DHT22;19064;47.912;12.308;2024-03-23T12:28:03;7.30;99.90
32660;DHT22;19064;47.912;12.308;2024-03-23T12:30:28;7.40;99.90
32660;DHT22;19064;47.912;12.308;2024-03-23T12:32:56;7.30;99.90
32660;DHT22;19064;47.912;12.308;2024-03-23T12:35:22;7.30;99.90
32660;DHT22;19064;47.912;12.308;2024-03-23T12:37:49;7.30;99.90
32660;DHT22;19064;47.912;12.308;2024-03-23T12:40:15;7.30;99.90
32660;DHT22;19064;47.912;12.308;2024-03-23T12:42:42;7.20;99.90
32660;DHT22;19064;47.912;12.308;2024-03-23T12:45:08;7.20;99.90
32660;DHT22;19064;47.912;12.308;2024-03-23T12:47:35;7.20;99.90
32660;DHT22;19064;47.912;12.308;2024-03-23T12:50:02;7.20;99.90
32660;DHT22;19064;47.912;12.308;2024-03-23T12:52:29;7.20;99.90
32660;DHT22;19064;47.912;12.308;2024-03-23T12:54:55;7.20;99.90
32660;DHT22;19064;47.912;12.308;2024-03-23T12:57:23;7.30;99.90
32660;DHT22;19064;47.912;12.308;2024-03-23T12:59:50;7.30;99.90
32660;DHT22;19064;47.912;12.308;2024-03-23T13:02:18;7.30;99.90
32660;DHT22;19064;47.912;12.308;2024-03-23T13:04:45;7.30;99.90
32660;DHT22;19064;47.912;12.308;2024-03-23T13:07:13;7.40;99.90
32660;DHT22;19064;47.912;12.308;2024-03-23T13:09:39;7.40;99.90
32660;DHT22;19064;47.912;12.308;2024-03-23T13:12:06;7.40;99.90
32660;DHT22;19064;47.912;12.308;2024-03-23T13:14:32;7.40;99.90
32660;DHT22;19064;47.912;12.308;2024-03-23T13:16:59;7.40;99.90
32660;DHT22;19064;47.912;12.308;2024-03-23T13:19:25;7.50;99.90
32660;DHT22;19064;47.912;12.308;2024-03-23T13:21:53;7.50;99.90
32660;DHT22;19064;47.912;12.308;2024-03-23T13:24:22;7.60;99.90
32660;DHT22;19064;47.912;12.308;2024-03-23T13:26:50;7.60;99.90
32660;DHT22;19064;47.912;12.308;2024-03-23T13:29:16;7.60;99.90
32660;DHT22;19064;47.912;12.308;2024-03-23T13:31:43;7.60;99.90
32660;DHT22;19064;47.912;12.308;2024-03-23T13:34:08;7.60;99.90
32660;DHT22;19064;47.912;12.308;2024-03-23T13:36:35;7.60;99.90
32660;DHT22;19064;47.912;12.308;2024-03-23T13:39:01;7.60;99.90
32660;DHT22;19064;47.912;12.308;2024-03-23T13:41:32;7.60;99.90
32660;DHT22;19064;47.912;12.308;2024-03-23T13:43:58;7.60;99.90
32660;DHT22;19064;47.912;12.308;2024-03-23T13:46:25;7.60;99.90
32660;DHT22;19064;47.912;12.308;2024-03-23T13:48:50;7.60;99.90
32660;DHT22;19064;47.912;12.308;2024-03-23T13:51:23;7.50;99.90
32660;DHT22;19064;47.912;12.308;2024-03-23T13:53:49;7.50;99.90
32660;DHT22;19064;47.912;12.308;2024-03-23T13:56:16;7.50;99.90
32660;DHT22;19064;47.912;12.308;2024-03-23T13:58:43;7.50;99.90
32660;DHT22;19064;47.912;12.308;2024-03-23T14:01:15;7.50;99.90
32660;DHT22;19064;47.912;12.308;2024-03-23T14:03:42;7.60;99.90
32660;DHT22;19064;47.912;12.308;2024-03-23T14:06:09;7.50;99.90
32660;DHT22;19064;47.912;12.308;2024-03-23T14:08:36;7.50;99.90
32660;DHT22;19064;47.912;12.308;2024-03-23T14:11:05;7.50;99.90
32660;DHT22;19064;47.912;12.308;2024-03-23T14:13:31;7.40;99.90
32660;DHT22;19064;47.912;12.308;2024-03-23T14:15:59;7.30;99.90
32660;DHT22;19064;47.912;12.308;2024-03-23T14:18:25;7.30;99.90
32660;DHT22;19064;47.912;12.308;2024-03-23T14:20:56;7.20;99.90
32660;DHT22;19064;47.912;12.308;2024-03-23T14:23:23;7.30;99.90
32660;DHT22;19064;47.912;12.308;2024-03-23T14:25:53;7.40;99.90
32660;DHT22;19064;47.912;12.308;2024-03-23T14:28:18;7.30;99.90
32660;DHT22;19064;47.912;12.308;2024-03-23T14:30:45;7.30;99.90
32660;DHT22;19064;47.912;12.308;2024-03-23T14:33:12;7.30;99.90
32660;DHT22;19064;47.912;12.308;2024-03-23T14:35:39;7.30;99.90
32660;DHT22;19064;47.912;12.308;2024-03-23T14:38:05;7.30;99.90
32660;DHT22;19064;47.912;12.308;2024-03-23T14:40:32;7.30;99.90
32660;DHT22;19064;47.912;12.308;2024-03-23T14:42:58;7.30;99.90
32660;DHT22;19064;47.912;12.308;2024-03-23T14:45:25;7.40;99.90
32660;DHT22;19064;47.912;12.308;2024-03-23T14:47:51;7.40;99.90
32660;DHT22;19064;47.912;12.308;2024-03-23T14:50:19;7.20;99.90
32660;DHT22;19064;47.912;12.308;2024-03-23T14:52:45;7.20;99.90
32660;DHT22;19064;47.912;12.308;2024-03-23T14:55:12;7.20;99.90
32660;DHT22;19064;47.912;12.308;2024-03-23T14:57:38;7.30;99.90
32660;DHT22;19064;47.912;12.308;2024-03-23T15:02:33;7.10;99.90
32660;DHT22;19064;47.912;12.308;2024-03-23T15:05:00;6.90;99.90
32660;DHT22;19064;47.912;12.308;2024-03-23T15:07:27;6.80;99.90
32660;DHT22;19064;47.912;12.308;2024-03-23T15:09:54;6.80;99.90
32660;DHT22;19064;47.912;12.308;2024-03-23T15:12:19;6.60;99.90
32660;DHT22;19064;47.912;12.308;2024-03-23T15:14:47;6.00;99.90
32660;DHT22;19064;47.912;12.308;2024-03-23T15:17:13;5.50;99.90
32660;DHT22;19064;47.912;12.308;2024-03-23T15:19:39;5.00;99.90
32660;DHT22;19064;47.912;12.308;2024-03-23T15:22:07;4.90;99.90
32660;DHT22;19064;47.912;12.308;2024-03-23T15:24:35;4.90;99.90
32660;DHT22;19064;47.912;12.308;2024-03-23T15:27:01;4.90;99.90
32660;DHT22;19064;47.912;12.308;2024-03-23T15:29:28;4.90;99.90
32660;DHT22;19064;47.912;12.308;2024-03-23T15:31:54;4.80;99.90
32660;DHT22;19064;47.912;12.308;2024-03-23T15:34:22;4.70;99.90
32660;DHT22;19064;47.912;12.308;2024-03-23T15:36:48;4.70;99.90
32660;DHT22;19064;47.912;12.308;2024-03-23T15:39:16;4.80;99.90
32660;DHT22;19064;47.912;12.308;2024-03-23T15:41:45;4.90;99.90
32660;DHT22;19064;47.912;12.308;2024-03-23T15:44:12;4.90;99.90
32660;DHT22;19064;47.912;12.308;2024-03-23T15:46:38;4.90;99.90
32660;DHT22;19064;47.912;12.308;2024-03-23T15:49:05;4.90;99.90
32660;DHT22;19064;47.912;12.308;2024-03-23T15:51:31;4.80;99.90
32660;DHT22;19064;47.912;12.308;2024-03-23T15:54:00;4.70;99.90
32660;DHT22;19064;47.912;12.308;2024-03-23T15:56:26;4.70;99.90
32660;DHT22;19064;47.912;12.308;2024-03-23T15:58:54;4.80;99.90
32660;DHT22;19064;47.912;12.308;2024-03-23T16:01:20;4.90;99.90
32660;DHT22;19064;47.912;12.308;2024-03-23T16:03:47;4.90;99.90
32660;DHT22;19064;47.912;12.308;2024-03-23T16:06:13;4.90;99.90
32660;DHT22;19064;47.912;12.308;2024-03-23T16:08:40;4.90;99.90
32660;DHT22;19064;47.912;12.308;2024-03-23T16:11:07;4.90;99.90
32660;DHT22;19064;47.912;12.308;2024-03-23T16:13:34;4.90;99.90
32660;DHT22;19064;47.912;12.308;2024-03-23T16:16:04;5.00;99.90
32660;DHT22;19064;47.912;12.308;2024-03-23T16:18:32;5.10;99.90
32660;DHT22;19064;47.912;12.308;2024-03-23T16:21:00;5.00;99.90